METAR Data
IDs: Format: Raw Decoded Include TAF

Data at: 2000 UTC 14 Dec 2018

KRYW 141955Z AUTO 32013G24KT 10SM OVC021 08/03 A3005 RMK AO2 T00840034
KRYW 141935Z AUTO 30012G21KT 10SM OVC019 08/03 A3005 RMK AO2 T00780033
KRYW 141915Z AUTO 31012G21KT 10SM OVC019 08/03 A3006 RMK AO2 T00770032
KRYW 141855Z AUTO 32013G19KT 10SM OVC017 08/03 A3006 RMK AO2 T00750032
KRYW 141835Z AUTO 31016G24KT 10SM OVC017 07/03 A3006 RMK AO2 T00730031
KRYW 141815Z AUTO 31015G23KT 290V350 10SM OVC017 07/03 A3006 RMK AO2 T00720030
KRYW 141755Z AUTO 32014G22KT 10SM OVC017 07/03 A3007 RMK AO2 T00710030 10071 20047
KRYW 141735Z AUTO 32014G26KT 10SM OVC017 07/03 A3007 RMK AO2 T00680030
KRYW 141715Z AUTO 32015G24KT 10SM OVC017 07/03 A3008 RMK AO2 T00660030
KRYW 141655Z AUTO 31011G18KT 10SM OVC017 07/03 A3008 RMK AO2 T00650030
KRYW 141635Z AUTO 32012G22KT 10SM OVC017 06/03 A3007 RMK AO2 T00640030
KRYW 141615Z AUTO 31012G21KT 10SM OVC017 06/03 A3006 RMK AO2 T00620027
KRYW 141555Z AUTO 31010G21KT 10SM OVC017 06/03 A3004 RMK AO2 T00610026
KRYW 141535Z AUTO 30013G20KT 10SM OVC017 06/02 A3004 RMK AO2 T00600024
KRYW 141515Z AUTO 33010G18KT 310V010 10SM OVC017 06/02 A3004 RMK AO2 T00580023
KRYW 141455Z AUTO 32010G21KT 10SM OVC017 06/02 A3003 RMK AO2 T00560022
KRYW 141435Z AUTO 34011G21KT 10SM OVC017 05/02 A3003 RMK AO2 T00530022
KRYW 141415Z AUTO 32010G21KT 10SM OVC015 05/02 A3002 RMK AO2 T00510023
KRYW 141355Z AUTO 32014G24KT 10SM OVC015 05/02 A3001 RMK AO2 T00500023
KRYW 141335Z AUTO 31012G23KT 10SM OVC015 05/02 A3000 RMK AO2 LTG DSNT NE T00480021
KRYW 141315Z AUTO 31011G24KT 290V350 10SM OVC015 05/02 A3000 RMK AO2 T00480020
KRYW 141255Z AUTO 32014G26KT 10SM OVC017 05/02 A3000 RMK AO2 T00480020
KRYW 141235Z AUTO 30016G23KT 10SM OVC017 05/02 A2999 RMK AO2 T00470017
KRYW 141215Z AUTO 31018G23KT 10SM OVC017 05/02 A2998 RMK AO2 LTG DSNT NE T00470017
KRYW 141155Z AUTO 31016G23KT 10SM OVC017 05/02 A2996 RMK AO2 T00480017 10060 20048
KRYW 141135Z AUTO 32013G26KT 10SM OVC017 05/02 A2996 RMK AO2 T00500017
KRYW 141115Z AUTO 31018G27KT 10SM OVC017 05/02 A2996 RMK AO2 T00500018
KRYW 141055Z AUTO 31018G25KT 10SM OVC017 05/02 A2994 RMK AO2 T00510020
KRYW 141035Z AUTO 31018G27KT 10SM OVC017 05/03 A2993 RMK AO2 T00520025
KRYW 141015Z AUTO 32015G30KT 280V340 10SM -RA OVC015 05/03 A2992 RMK AO2 T00480032
KRYW 140955Z AUTO 31017G31KT 10SM DZ OVC015 05/03 A2992 RMK AO2 T00510032
KRYW 140935Z AUTO 30015G31KT 10SM -DZ OVC015 05/03 A2991 RMK AO2 T00500030
KRYW 140915Z AUTO 30016G27KT 10SM -RA BKN017 OVC027 05/03 A2990 RMK AO2 T00500028
KRYW 140855Z AUTO 30015G26KT 10SM -DZ OVC017 05/03 A2990 RMK AO2 LTG DSNT NE T00510027
KRYW 140835Z AUTO 30019G26KT 10SM DZ OVC017 06/03 A2991 RMK AO2 T00550026
KRYW 140815Z AUTO 31016G29KT 10SM OVC017 06/02 A2991 RMK AO2 T00550023
KRYW 140755Z AUTO 31020G28KT 10SM OVC019 06/03 A2990 RMK AO2 T00560025
KRYW 140735Z AUTO 30019G25KT 10SM OVC017 06/03 A2990 RMK AO2 T00580027
KRYW 140715Z AUTO 31013G28KT 10SM OVC017 06/03 A2989 RMK AO2 T00570027
KRYW 140655Z AUTO 31012G30KT 10SM OVC017 06/03 A2989 RMK AO2 T00570027
KRYW 140635Z AUTO 31017G25KT 10SM OVC019 06/03 A2989 RMK AO2 T00580028
KRYW 140615Z AUTO 31017G27KT 10SM OVC019 06/03 A2989 RMK AO2 T00600030
KRYW 140555Z AUTO 31015G25KT 10SM RA OVC019 06/04 A2988 RMK AO2 T00570038 10079 20057 401900057
KRYW 140535Z AUTO 30018G28KT 10SM -RA OVC019 06/04 A2988 RMK AO2 T00600035
KRYW 140515Z AUTO 30015G25KT 10SM -RA OVC019 06/04 A2988 RMK AO2 T00610037
KRYW 140455Z AUTO 28009G15KT 10SM -RA OVC017 06/04 A2988 RMK AO2 T00600038
KRYW 140435Z AUTO 28013G20KT 10SM -RA OVC017 06/03 A2988 RMK AO2 T00620034
KRYW 140415Z AUTO 29010G17KT 10SM OVC017 06/03 A2987 RMK AO2 T00630032
KRYW 140355Z AUTO 28012G22KT 10SM -DZ OVC019 06/03 A2986 RMK AO2 T00640031
KRYW 140335Z AUTO 30014G25KT 280V340 10SM OVC019 07/03 A2986 RMK AO2 T00660030
KRYW 140315Z AUTO 30014G21KT 10SM OVC019 07/03 A2986 RMK AO2 T00650030
KRYW 140255Z AUTO 29013G26KT 10SM OVC019 07/03 A2986 RMK AO2 T00650030
KRYW 140235Z AUTO 29013G25KT 10SM OVC017 06/03 A2986 RMK AO2 T00640032
KRYW 140215Z AUTO 29012G22KT 10SM -DZ OVC017 06/04 A2986 RMK AO2 T00610035
KRYW 140155Z AUTO 30015G26KT 10SM -DZ OVC017 06/04 A2986 RMK AO2 T00610035
KRYW 140135Z AUTO 28016G22KT 10SM DZ OVC023 07/03 A2986 RMK AO2 T00670034
KRYW 140115Z AUTO 29017G23KT 10SM OVC023 07/03 A2985 RMK AO2 T00710030
KRYW 140055Z AUTO 28017G23KT 10SM OVC023 07/03 A2986 RMK AO2 LTG DSNT N T00710032
KRYW 140035Z AUTO 29014G21KT 10SM OVC023 07/04 A2986 RMK AO2 T00680039
KRYW 140015Z AUTO 29011G22KT 10SM -RA BKN025 OVC032 07/05 A2986 RMK AO2 T00700046
KRYW 132355Z AUTO 28012G25KT 10SM -DZ SCT025 BKN032 BKN039 08/04 A2985 RMK AO2 T00770036 10190 20077
KRYW 132335Z AUTO 28017G23KT 10SM SCT027 SCT032 SCT039 08/03 A2984 RMK AO2 T00830028
KRYW 132315Z AUTO 28015G27KT 10SM SCT032 SCT039 09/03 A2984 RMK AO2 T00930025
KRYW 132255Z AUTO 28013G27KT 10SM CLR 10/03 A2983 RMK AO2 T00980027
KRYW 132235Z AUTO 28019G34KT 10SM SCT035 11/03 A2981 RMK AO2 T01080030
KRYW 132215Z AUTO 28025G33KT 10SM SCT035 13/04 A2980 RMK AO2 T01290042
KRYW 132155Z AUTO 29017G38KT 10SM CLR 15/03 A2977 RMK AO2 T01500031
KRYW 132135Z AUTO 28018G26KT 10SM CLR 17/01 A2976 RMK AO2 LTG DSNT NE T01660005
KRYW 132115Z AUTO 29015G24KT 10SM CLR 17/01 A2975 RMK AO2 LTG DSNT N T01710005
KRYW 132055Z AUTO 27020G27KT 10SM CLR 18/M01 A2975 RMK AO2 LTG DSNT N T01751012
KRYW 132035Z AUTO 27020G30KT 10SM CLR 18/M02 A2974 RMK AO2 LTG DSNT N T01781022
KRYW 132015Z AUTO 28017G30KT 10SM CLR 19/M03 A2974 RMK AO2 T01851032
KRYW 131955Z AUTO 27022G32KT 10SM CLR 19/M03 A2974 RMK AO2 LTG DSNT N T01861034
KRYW 131935Z AUTO 27014G26KT 10SM CLR 19/M01 A2974 RMK AO2 LTG DSNT N T01881009
KRYW 131915Z AUTO 27016G27KT 10SM CLR 19/00 A2975 RMK AO2 T01871001
KRYW 131855Z AUTO 27011G23KT 10SM CLR 19/04 A2975 RMK AO2 T01880043
KRYW 131835Z AUTO 27016G25KT 10SM CLR 19/05 A2976 RMK AO2 T01850051
KRYW 131815Z AUTO 29010G20KT 10SM CLR 18/06 A2976 RMK AO2 T01830058
KRYW 131755Z AUTO 28016G26KT 10SM CLR 18/07 A2976 RMK AO2 T01840066 10186 20135
KRYW 131735Z AUTO 29015G23KT 10SM CLR 19/08 A2976 RMK AO2 T01860079
KRYW 131715Z AUTO 28013G21KT 10SM CLR 18/08 A2976 RMK AO2 T01810082
KRYW 131655Z AUTO 29014G27KT 10SM CLR 18/08 A2976 RMK AO2 LTG DSNT N T01820081
KRYW 131635Z AUTO 27014G21KT 10SM CLR 18/10 A2976 RMK AO2 T01800098
KRYW 131615Z AUTO 28012G20KT 10SM CLR 18/11 A2975 RMK AO2 T01770112
KRYW 131555Z AUTO 27009G14KT 10SM CLR 17/13 A2975 RMK AO2 T01660132
KRYW 131535Z AUTO 26006KT 10SM CLR 16/14 A2975 RMK AO2 T01580143
KRYW 131515Z AUTO 24006KT 10SM CLR 15/15 A2975 RMK AO2 T01500150
KRYW 131455Z AUTO 24007KT 10SM CLR 15/15 A2975 RMK AO2 T01450145
KRYW 131435Z AUTO 24009KT 10SM CLR 14/14 A2974 RMK AO2 T01420142
KRYW 131415Z AUTO 24007KT 10SM CLR 14/14 A2973 RMK AO2 T01400140
KRYW 131355Z AUTO 25007KT 10SM CLR 14/14 A2972 RMK AO2 T01370137
KRYW 131335Z AUTO 26008KT 10SM CLR 14/14 A2972 RMK AO2 T01360136
KRYW 131315Z AUTO 26006KT 7SM CLR 14/14 A2972 RMK AO2 T01370137
KRYW 131255Z AUTO 26007KT 7SM SCT002 14/14 A2972 RMK AO2 T01400140
KRYW 131235Z AUTO 26006KT 5SM BR SCT004 14/14 A2971 RMK AO2 T01430143
KRYW 131215Z AUTO 25008KT 4SM BR BKN004 15/15 A2971 RMK AO2 T01450145
KRYW 131155Z AUTO 25011KT 7SM BKN002 15/15 A2971 RMK AO2 T01480148 10162 20148
KRYW 131135Z AUTO 25010KT 5SM BR OVC002 15/15 A2971 RMK AO2 T01500150
KRYW 131115Z AUTO 24008KT 5SM BR OVC002 15/15 A2970 RMK AO2 T01510151
KRYW 131055Z AUTO 24007KT 5SM BR OVC002 15/15 A2970 RMK AO2 T01520152
KRYW 131035Z AUTO 23007KT 5SM BR OVC002 16/16 A2971 RMK AO2 T01550155
KRYW 131015Z AUTO 25009KT 3SM BR OVC002 16/16 A2972 RMK AO2 T01580158
KRYW 130955Z AUTO 25006KT 1SM BR OVC002 16/16 A2973 RMK AO2 T01600160
KRYW 130935Z AUTO 23004KT 5SM BR OVC004 16/16 A2974 RMK AO2 LTG DSNT E T01610161
KRYW 130915Z AUTO 21007KT 5SM BR OVC002 16/16 A2974 RMK AO2 LTG DSNT NE AND E T01610161
KRYW 130855Z AUTO 21005KT 5SM VCTS BR OVC002 16/16 A2975 RMK AO2 T01610161
KRYW 130835Z AUTO 20005KT 5SM BR OVC002 16/16 A2976 RMK AO2 T01620162
KRYW 130815Z AUTO 20004KT 1 1/2SM BR OVC002 16/16 A2977 RMK AO2 LTG DSNT N T01610161